sensor_id;sensor_type;location;lat;lon;timestamp;pressure;altitude;pressure_sealevel;temperature;humidity
76086;BME280;64791;0.000;0.000;2023-05-07T00:00:08;93982.00;;;7.25;74.68
76086;BME280;64791;0.000;0.000;2023-05-07T00:02:34;93975.34;;;7.20;74.62
76086;BME280;64791;0.000;0.000;2023-05-07T00:05:00;93985.19;;;7.16;75.07
76086;BME280;64791;0.000;0.000;2023-05-07T00:07:25;93992.44;;;7.13;75.04
76086;BME280;64791;0.000;0.000;2023-05-07T00:09:52;93989.03;;;7.07;75.46
76086;BME280;64791;0.000;0.000;2023-05-07T00:12:18;93990.69;;;6.97;74.80
76086;BME280;64791;0.000;0.000;2023-05-07T00:14:43;93997.06;;;6.87;75.79
76086;BME280;64791;0.000;0.000;2023-05-07T00:17:09;93995.75;;;6.74;77.34
76086;BME280;64791;0.000;0.000;2023-05-07T00:19:35;94000.06;;;6.70;76.81
76086;BME280;64791;0.000;0.000;2023-05-07T00:22:00;94006.56;;;6.67;77.16
76086;BME280;64791;0.000;0.000;2023-05-07T00:24:26;93999.41;;;6.64;76.93
76086;BME280;64791;0.000;0.000;2023-05-07T00:26:51;94004.13;;;6.63;76.94
76086;BME280;64791;0.000;0.000;2023-05-07T00:29:18;93998.44;;;6.61;76.19
76086;BME280;64791;0.000;0.000;2023-05-07T00:31:43;94005.16;;;6.60;76.52
76086;BME280;64791;0.000;0.000;2023-05-07T00:34:09;94008.44;;;6.59;76.88
76086;BME280;64791;0.000;0.000;2023-05-07T00:36:34;94019.41;;;6.59;76.46
76086;BME280;64791;0.000;0.000;2023-05-07T00:39:01;94026.28;;;6.65;77.54
76086;BME280;64791;0.000;0.000;2023-05-07T00:41:29;94030.66;;;6.74;77.07
76086;BME280;64791;0.000;0.000;2023-05-07T00:43:55;94017.91;;;6.77;76.57
76086;BME280;64791;0.000;0.000;2023-05-07T00:46:22;94022.44;;;6.74;76.46
76086;BME280;64791;0.000;0.000;2023-05-07T00:48:48;94028.44;;;6.72;78.24
76086;BME280;64791;0.000;0.000;2023-05-07T00:51:15;94019.91;;;6.76;77.64
76086;BME280;64791;0.000;0.000;2023-05-07T00:53:40;94024.41;;;6.73;77.98
76086;BME280;64791;0.000;0.000;2023-05-07T00:56:06;94023.09;;;6.61;78.39
76086;BME280;64791;0.000;0.000;2023-05-07T00:58:32;94035.16;;;6.53;78.39
76086;BME280;64791;0.000;0.000;2023-05-07T01:00:58;94024.34;;;6.60;78.79
76086;BME280;64791;0.000;0.000;2023-05-07T01:03:24;94019.84;;;6.82;78.95
76086;BME280;64791;0.000;0.000;2023-05-07T01:05:51;94016.69;;;6.91;78.85
76086;BME280;64791;0.000;0.000;2023-05-07T01:08:17;94013.88;;;6.96;77.61
76086;BME280;64791;0.000;0.000;2023-05-07T01:10:43;94010.34;;;6.83;77.73
76086;BME280;64791;0.000;0.000;2023-05-07T01:13:09;94007.09;;;6.65;78.77
76086;BME280;64791;0.000;0.000;2023-05-07T01:15:36;94006.66;;;6.61;79.60
76086;BME280;64791;0.000;0.000;2023-05-07T01:18:02;94001.91;;;6.81;80.35
76086;BME280;64791;0.000;0.000;2023-05-07T01:20:32;93993.09;;;6.88;79.99
76086;BME280;64791;0.000;0.000;2023-05-07T01:22:58;93995.41;;;6.97;80.36
76086;BME280;64791;0.000;0.000;2023-05-07T01:25:26;93998.34;;;7.17;79.81
76086;BME280;64791;0.000;0.000;2023-05-07T01:27:56;93994.50;;;7.26;79.34
76086;BME280;64791;0.000;0.000;2023-05-07T01:30:26;93988.47;;;7.27;79.16
76086;BME280;64791;0.000;0.000;2023-05-07T01:33:14;93986.69;;;7.30;79.85
76086;BME280;64791;0.000;0.000;2023-05-07T01:35:39;93993.56;;;7.36;79.45
76086;BME280;64791;0.000;0.000;2023-05-07T01:38:05;93989.34;;;7.35;79.32
76086;BME280;64791;0.000;0.000;2023-05-07T01:40:32;93997.28;;;7.39;79.65
76086;BME280;64791;0.000;0.000;2023-05-07T01:42:59;93994.97;;;7.43;80.67
76086;BME280;64791;0.000;0.000;2023-05-07T01:45:25;93992.25;;;7.56;79.99
76086;BME280;64791;0.000;0.000;2023-05-07T01:47:52;93990.13;;;7.62;79.33
76086;BME280;64791;0.000;0.000;2023-05-07T01:50:18;93987.06;;;7.52;78.97
76086;BME280;64791;0.000;0.000;2023-05-07T01:52:44;93989.59;;;7.50;79.94
76086;BME280;64791;0.000;0.000;2023-05-07T01:55:10;93990.94;;;7.44;79.48
76086;BME280;64791;0.000;0.000;2023-05-07T01:57:36;93989.13;;;7.33;80.88
76086;BME280;64791;0.000;0.000;2023-05-07T02:00:03;93982.94;;;7.33;80.33
76086;BME280;64791;0.000;0.000;2023-05-07T02:02:40;93972.88;;;7.35;81.03
76086;BME280;64791;0.000;0.000;2023-05-07T02:05:10;93967.75;;;7.45;82.83
76086;BME280;64791;0.000;0.000;2023-05-07T02:07:38;93965.84;;;7.66;82.53
76086;BME280;64791;0.000;0.000;2023-05-07T02:10:04;93963.84;;;7.54;82.41
76086;BME280;64791;0.000;0.000;2023-05-07T02:12:30;93952.97;;;7.48;82.30
76086;BME280;64791;0.000;0.000;2023-05-07T02:14:56;93963.75;;;7.46;82.55
76086;BME280;64791;0.000;0.000;2023-05-07T02:17:21;93963.53;;;7.57;81.73
76086;BME280;64791;0.000;0.000;2023-05-07T02:19:47;93964.69;;;7.48;82.01
76086;BME280;64791;0.000;0.000;2023-05-07T02:22:12;93958.47;;;7.48;82.41
76086;BME280;64791;0.000;0.000;2023-05-07T02:24:38;93958.56;;;7.42;81.94
76086;BME280;64791;0.000;0.000;2023-05-07T02:27:04;93956.13;;;7.39;81.64
76086;BME280;64791;0.000;0.000;2023-05-07T02:29:30;93958.34;;;7.40;81.65
76086;BME280;64791;0.000;0.000;2023-05-07T02:31:56;93956.75;;;7.32;81.53
76086;BME280;64791;0.000;0.000;2023-05-07T02:34:22;93961.28;;;7.42;81.14
76086;BME280;64791;0.000;0.000;2023-05-07T02:36:47;93959.16;;;7.35;81.80
76086;BME280;64791;0.000;0.000;2023-05-07T02:39:17;93963.19;;;7.34;82.15
76086;BME280;64791;0.000;0.000;2023-05-07T02:41:42;93955.28;;;7.31;82.69
76086;BME280;64791;0.000;0.000;2023-05-07T02:44:08;93956.09;;;7.26;81.68
76086;BME280;64791;0.000;0.000;2023-05-07T02:46:34;93950.09;;;7.27;82.71
76086;BME280;64791;0.000;0.000;2023-05-07T02:49:05;93948.31;;;7.43;82.74
76086;BME280;64791;0.000;0.000;2023-05-07T02:51:31;93955.72;;;7.48;83.06
76086;BME280;64791;0.000;0.000;2023-05-07T02:53:59;93951.69;;;7.49;82.92
76086;BME280;64791;0.000;0.000;2023-05-07T02:56:28;93956.44;;;7.48;82.61
76086;BME280;64791;0.000;0.000;2023-05-07T02:58:53;93954.97;;;7.47;82.37
76086;BME280;64791;0.000;0.000;2023-05-07T03:01:21;93965.75;;;7.45;82.11
76086;BME280;64791;0.000;0.000;2023-05-07T03:04:00;93968.88;;;7.36;81.51
76086;BME280;64791;0.000;0.000;2023-05-07T03:06:26;93963.19;;;7.34;82.97
76086;BME280;64791;0.000;0.000;2023-05-07T03:08:51;93968.69;;;7.34;82.63
76086;BME280;64791;0.000;0.000;2023-05-07T03:11:17;93969.72;;;7.31;81.03
76086;BME280;64791;0.000;0.000;2023-05-07T03:13:43;93961.63;;;7.20;81.40
76086;BME280;64791;0.000;0.000;2023-05-07T03:16:08;93967.66;;;7.19;81.11
76086;BME280;64791;0.000;0.000;2023-05-07T03:18:34;93963.75;;;7.14;83.14
76086;BME280;64791;0.000;0.000;2023-05-07T03:21:00;93974.81;;;7.09;81.98
76086;BME280;64791;0.000;0.000;2023-05-07T03:23:25;93977.22;;;7.12;82.04
76086;BME280;64791;0.000;0.000;2023-05-07T03:25:51;93979.00;;;7.10;81.99
76086;BME280;64791;0.000;0.000;2023-05-07T03:28:17;93981.84;;;7.04;81.79
76086;BME280;64791;0.000;0.000;2023-05-07T03:30:48;93982.88;;;7.01;82.65
76086;BME280;64791;0.000;0.000;2023-05-07T03:33:14;93977.72;;;6.98;81.75
76086;BME280;64791;0.000;0.000;2023-05-07T03:35:41;93977.63;;;7.03;81.31
76086;BME280;64791;0.000;0.000;2023-05-07T03:38:07;93983.41;;;7.00;81.87
76086;BME280;64791;0.000;0.000;2023-05-07T03:40:35;93981.84;;;7.04;80.58
76086;BME280;64791;0.000;0.000;2023-05-07T03:43:02;93986.81;;;7.06;80.65
76086;BME280;64791;0.000;0.000;2023-05-07T03:45:29;93984.81;;;7.06;80.02
76086;BME280;64791;0.000;0.000;2023-05-07T03:48:21;93987.16;;;7.15;80.61
76086;BME280;64791;0.000;0.000;2023-05-07T03:50:48;93991.81;;;7.20;80.95
76086;BME280;64791;0.000;0.000;2023-05-07T03:53:15;93997.00;;;7.24;83.00
76086;BME280;64791;0.000;0.000;2023-05-07T03:55:41;93995.72;;;7.25;83.20
76086;BME280;64791;0.000;0.000;2023-05-07T03:58:07;94003.69;;;7.28;82.96
76086;BME280;64791;0.000;0.000;2023-05-07T04:00:32;93996.63;;;7.33;82.95
76086;BME280;64791;0.000;0.000;2023-05-07T04:03:05;94002.78;;;7.39;82.94
76086;BME280;64791;0.000;0.000;2023-05-07T04:05:31;94002.16;;;7.46;83.13
76086;BME280;64791;0.000;0.000;2023-05-07T04:08:00;94003.13;;;7.62;82.03
76086;BME280;64791;0.000;0.000;2023-05-07T04:10:33;94009.38;;;7.75;81.98
76086;BME280;64791;0.000;0.000;2023-05-07T04:13:02;94012.75;;;7.81;81.29
76086;BME280;64791;0.000;0.000;2023-05-07T04:15:28;94016.13;;;7.87;81.84
76086;BME280;64791;0.000;0.000;2023-05-07T04:17:54;94015.28;;;7.92;83.03
76086;BME280;64791;0.000;0.000;2023-05-07T04:20:23;94020.59;;;8.03;82.63
76086;BME280;64791;0.000;0.000;2023-05-07T04:22:55;94025.41;;;8.23;83.49
76086;BME280;64791;0.000;0.000;2023-05-07T04:25:21;94022.03;;;8.44;82.85
76086;BME280;64791;0.000;0.000;2023-05-07T04:27:48;94031.00;;;8.70;82.91
76086;BME280;64791;0.000;0.000;2023-05-07T04:30:15;94038.50;;;9.03;81.49
76086;BME280;64791;0.000;0.000;2023-05-07T04:32:41;94039.13;;;9.43;80.99
76086;BME280;64791;0.000;0.000;2023-05-07T04:35:07;94037.34;;;9.95;79.88
76086;BME280;64791;0.000;0.000;2023-05-07T04:37:34;94039.06;;;10.33;78.97
76086;BME280;64791;0.000;0.000;2023-05-07T04:40:02;94038.00;;;10.72;78.42
76086;BME280;64791;0.000;0.000;2023-05-07T04:42:28;94047.13;;;11.03;76.59
76086;BME280;64791;0.000;0.000;2023-05-07T04:44:54;94045.38;;;11.28;75.03
76086;BME280;64791;0.000;0.000;2023-05-07T04:47:22;94046.31;;;11.46;74.82
76086;BME280;64791;0.000;0.000;2023-05-07T04:49:47;94049.84;;;11.69;74.68
76086;BME280;64791;0.000;0.000;2023-05-07T04:52:13;94045.22;;;12.01;72.97
76086;BME280;64791;0.000;0.000;2023-05-07T04:54:39;94044.91;;;12.13;73.03
76086;BME280;64791;0.000;0.000;2023-05-07T04:57:06;94045.59;;;12.36;72.45
76086;BME280;64791;0.000;0.000;2023-05-07T04:59:32;94047.06;;;12.44;72.03
76086;BME280;64791;0.000;0.000;2023-05-07T05:01:58;94046.84;;;12.65;71.51
76086;BME280;64791;0.000;0.000;2023-05-07T05:04:24;94040.50;;;12.79;71.29
76086;BME280;64791;0.000;0.000;2023-05-07T05:06:49;94039.94;;;12.81;70.13
76086;BME280;64791;0.000;0.000;2023-05-07T05:09:15;94040.78;;;13.06;70.42
76086;BME280;64791;0.000;0.000;2023-05-07T05:11:41;94047.19;;;13.16;70.58
76086;BME280;64791;0.000;0.000;2023-05-07T05:14:07;94036.97;;;13.34;69.70
76086;BME280;64791;0.000;0.000;2023-05-07T05:16:32;94035.59;;;13.50;68.78
76086;BME280;64791;0.000;0.000;2023-05-07T05:18:59;94042.09;;;13.70;68.60
76086;BME280;64791;0.000;0.000;2023-05-07T05:21:24;94036.47;;;13.85;67.62
76086;BME280;64791;0.000;0.000;2023-05-07T05:23:54;94037.41;;;14.04;67.79
76086;BME280;64791;0.000;0.000;2023-05-07T05:26:23;94035.66;;;14.33;67.16
76086;BME280;64791;0.000;0.000;2023-05-07T05:28:48;94042.81;;;14.61;67.53
76086;BME280;64791;0.000;0.000;2023-05-07T05:31:16;94033.38;;;14.81;66.22
76086;BME280;64791;0.000;0.000;2023-05-07T05:33:42;94041.19;;;14.92;64.64
76086;BME280;64791;0.000;0.000;2023-05-07T05:36:10;94047.06;;;15.13;64.25
76086;BME280;64791;0.000;0.000;2023-05-07T05:38:37;94045.22;;;15.26;63.70
76086;BME280;64791;0.000;0.000;2023-05-07T05:41:03;94049.41;;;15.51;63.80
76086;BME280;64791;0.000;0.000;2023-05-07T05:43:29;94051.03;;;15.91;62.96
76086;BME280;64791;0.000;0.000;2023-05-07T05:45:55;94052.59;;;16.11;61.59
76086;BME280;64791;0.000;0.000;2023-05-07T05:48:21;94052.25;;;16.43;60.97
76086;BME280;64791;0.000;0.000;2023-05-07T05:50:48;94050.41;;;16.93;58.39
76086;BME280;64791;0.000;0.000;2023-05-07T05:53:15;94051.00;;;16.92;58.94
76086;BME280;64791;0.000;0.000;2023-05-07T05:55:41;94050.72;;;16.97;59.48
76086;BME280;64791;0.000;0.000;2023-05-07T05:58:07;94047.63;;;17.22;58.50
76086;BME280;64791;0.000;0.000;2023-05-07T06:00:38;94046.16;;;17.50;57.09
76086;BME280;64791;0.000;0.000;2023-05-07T06:03:05;94042.16;;;17.62;55.82
76086;BME280;64791;0.000;0.000;2023-05-07T06:05:31;94047.19;;;17.94;57.64
76086;BME280;64791;0.000;0.000;2023-05-07T06:07:57;94050.84;;;18.06;57.01
76086;BME280;64791;0.000;0.000;2023-05-07T06:10:23;94052.34;;;18.38;57.29
76086;BME280;64791;0.000;0.000;2023-05-07T06:12:50;94055.03;;;18.57;56.84
76086;BME280;64791;0.000;0.000;2023-05-07T06:15:16;94054.59;;;19.03;54.28
76086;BME280;64791;0.000;0.000;2023-05-07T06:17:42;94053.72;;;19.54;53.48
76086;BME280;64791;0.000;0.000;2023-05-07T06:20:09;94051.47;;;19.86;50.83
76086;BME280;64791;0.000;0.000;2023-05-07T06:22:35;94047.78;;;20.27;50.41
76086;BME280;64791;0.000;0.000;2023-05-07T06:25:02;94045.34;;;20.45;50.07
76086;BME280;64791;0.000;0.000;2023-05-07T06:27:27;94041.44;;;20.27;50.72
76086;BME280;64791;0.000;0.000;2023-05-07T06:29:53;94050.59;;;20.27;52.59
76086;BME280;64791;0.000;0.000;2023-05-07T06:32:20;94043.88;;;20.21;52.29
76086;BME280;64791;0.000;0.000;2023-05-07T06:34:46;94034.72;;;20.09;51.93
76086;BME280;64791;0.000;0.000;2023-05-07T06:37:12;94032.16;;;20.59;49.97
76086;BME280;64791;0.000;0.000;2023-05-07T06:40:07;94039.88;;;20.47;50.98
76086;BME280;64791;0.000;0.000;2023-05-07T06:42:38;94030.09;;;21.20;48.80
76086;BME280;64791;0.000;0.000;2023-05-07T06:45:32;94031.16;;;21.01;49.86
76086;BME280;64791;0.000;0.000;2023-05-07T06:47:59;94024.72;;;21.24;48.67
76086;BME280;64791;0.000;0.000;2023-05-07T06:50:26;94026.56;;;20.71;48.75
76086;BME280;64791;0.000;0.000;2023-05-07T06:52:55;94021.50;;;21.29;50.17
76086;BME280;64791;0.000;0.000;2023-05-07T06:55:21;94016.59;;;22.05;47.36
76086;BME280;64791;0.000;0.000;2023-05-07T06:57:46;94006.91;;;22.33;47.06
76086;BME280;64791;0.000;0.000;2023-05-07T07:00:13;94014.41;;;22.42;45.76
76086;BME280;64791;0.000;0.000;2023-05-07T07:02:45;94006.75;;;22.99;42.04
76086;BME280;64791;0.000;0.000;2023-05-07T07:05:13;94012.31;;;22.70;44.44
76086;BME280;64791;0.000;0.000;2023-05-07T07:07:38;94015.63;;;22.80;45.02
76086;BME280;64791;0.000;0.000;2023-05-07T07:10:04;94010.88;;;23.55;41.72
76086;BME280;64791;0.000;0.000;2023-05-07T07:12:30;94016.09;;;23.60;43.63
76086;BME280;64791;0.000;0.000;2023-05-07T07:14:56;94010.06;;;23.23;43.71
76086;BME280;64791;0.000;0.000;2023-05-07T07:17:22;94015.59;;;23.50;45.31
76086;BME280;64791;0.000;0.000;2023-05-07T07:19:47;94015.84;;;23.41;45.45
76086;BME280;64791;0.000;0.000;2023-05-07T07:22:13;94016.81;;;23.61;45.58
76086;BME280;64791;0.000;0.000;2023-05-07T07:24:39;94014.47;;;23.12;45.81
76086;BME280;64791;0.000;0.000;2023-05-07T07:27:06;94009.72;;;23.60;43.59
76086;BME280;64791;0.000;0.000;2023-05-07T07:29:33;94010.84;;;24.44;41.73
76086;BME280;64791;0.000;0.000;2023-05-07T07:31:59;94003.31;;;24.82;40.54
76086;BME280;64791;0.000;0.000;2023-05-07T07:34:24;94005.38;;;25.13;40.42
76086;BME280;64791;0.000;0.000;2023-05-07T07:36:50;94010.00;;;25.06;40.31
76086;BME280;64791;0.000;0.000;2023-05-07T07:39:17;94005.72;;;25.38;40.27
76086;BME280;64791;0.000;0.000;2023-05-07T07:41:44;94009.50;;;25.27;40.54
76086;BME280;64791;0.000;0.000;2023-05-07T07:44:11;94013.25;;;24.83;42.39
76086;BME280;64791;0.000;0.000;2023-05-07T07:46:39;94019.75;;;24.54;41.86
76086;BME280;64791;0.000;0.000;2023-05-07T07:49:05;94012.50;;;25.67;39.29
76086;BME280;64791;0.000;0.000;2023-05-07T07:51:31;94011.69;;;25.64;38.73
76086;BME280;64791;0.000;0.000;2023-05-07T07:53:58;94011.56;;;26.15;38.50
76086;BME280;64791;0.000;0.000;2023-05-07T07:56:24;94013.63;;;26.32;38.31
76086;BME280;64791;0.000;0.000;2023-05-07T07:58:50;94010.22;;;25.63;38.44
76086;BME280;64791;0.000;0.000;2023-05-07T08:01:16;94009.69;;;25.67;40.23
76086;BME280;64791;0.000;0.000;2023-05-07T08:03:44;94018.72;;;25.98;41.01
76086;BME280;64791;0.000;0.000;2023-05-07T08:06:11;94017.75;;;26.86;39.12
76086;BME280;64791;0.000;0.000;2023-05-07T08:08:36;94018.66;;;27.32;37.72
76086;BME280;64791;0.000;0.000;2023-05-07T08:11:02;94017.63;;;27.86;36.13
76086;BME280;64791;0.000;0.000;2023-05-07T08:13:31;94012.84;;;27.69;37.88
76086;BME280;64791;0.000;0.000;2023-05-07T08:15:57;94013.50;;;27.26;37.82
76086;BME280;64791;0.000;0.000;2023-05-07T08:18:24;94006.63;;;27.12;38.04
76086;BME280;64791;0.000;0.000;2023-05-07T08:20:51;94000.69;;;28.12;34.00
76086;BME280;64791;0.000;0.000;2023-05-07T08:23:20;94007.78;;;28.84;34.66
76086;BME280;64791;0.000;0.000;2023-05-07T08:25:47;94001.09;;;28.99;34.44
76086;BME280;64791;0.000;0.000;2023-05-07T08:28:13;94010.22;;;28.70;33.46
76086;BME280;64791;0.000;0.000;2023-05-07T08:30:39;94006.75;;;28.24;34.52
76086;BME280;64791;0.000;0.000;2023-05-07T08:33:05;94007.56;;;29.01;33.02
76086;BME280;64791;0.000;0.000;2023-05-07T08:35:30;93998.59;;;29.37;31.54
76086;BME280;64791;0.000;0.000;2023-05-07T08:37:56;93999.09;;;29.03;33.30
76086;BME280;64791;0.000;0.000;2023-05-07T08:40:24;94000.13;;;29.16;34.15
76086;BME280;64791;0.000;0.000;2023-05-07T08:42:50;94003.44;;;28.31;36.28
76086;BME280;64791;0.000;0.000;2023-05-07T08:45:17;94004.28;;;28.62;33.03
76086;BME280;64791;0.000;0.000;2023-05-07T08:47:46;93996.19;;;29.55;31.32
76086;BME280;64791;0.000;0.000;2023-05-07T08:50:14;94000.91;;;28.67;31.58
76086;BME280;64791;0.000;0.000;2023-05-07T08:52:41;93998.06;;;28.18;32.81
76086;BME280;64791;0.000;0.000;2023-05-07T08:55:07;93988.00;;;28.88;31.56
76086;BME280;64791;0.000;0.000;2023-05-07T08:57:33;93997.31;;;28.41;34.04
76086;BME280;64791;0.000;0.000;2023-05-07T08:59:59;94000.28;;;29.22;33.58
76086;BME280;64791;0.000;0.000;2023-05-07T09:02:25;93999.63;;;28.96;34.35
76086;BME280;64791;0.000;0.000;2023-05-07T09:04:51;94000.19;;;28.67;33.81
76086;BME280;64791;0.000;0.000;2023-05-07T09:07:17;93999.63;;;28.96;33.27
76086;BME280;64791;0.000;0.000;2023-05-07T09:09:43;93997.16;;;29.38;31.46
76086;BME280;64791;0.000;0.000;2023-05-07T09:12:10;93988.03;;;28.64;31.55
76086;BME280;64791;0.000;0.000;2023-05-07T09:14:36;93997.81;;;29.08;31.77
76086;BME280;64791;0.000;0.000;2023-05-07T09:17:03;93980.63;;;29.30;29.88
76086;BME280;64791;0.000;0.000;2023-05-07T09:19:29;93985.25;;;29.73;30.43
76086;BME280;64791;0.000;0.000;2023-05-07T09:21:58;93975.06;;;28.08;31.74
76086;BME280;64791;0.000;0.000;2023-05-07T09:24:25;93980.13;;;28.35;30.49
76086;BME280;64791;0.000;0.000;2023-05-07T09:26:52;93975.66;;;28.28;31.81
76086;BME280;64791;0.000;0.000;2023-05-07T09:29:18;93972.38;;;28.14;33.79
76086;BME280;64791;0.000;0.000;2023-05-07T09:31:44;93973.66;;;28.82;31.79
76086;BME280;64791;0.000;0.000;2023-05-07T09:34:13;93968.06;;;28.60;30.55
76086;BME280;64791;0.000;0.000;2023-05-07T09:36:42;93970.41;;;28.42;32.03
76086;BME280;64791;0.000;0.000;2023-05-07T09:39:08;93965.34;;;28.90;28.97
76086;BME280;64791;0.000;0.000;2023-05-07T09:41:36;93967.31;;;29.37;29.21
76086;BME280;64791;0.000;0.000;2023-05-07T09:44:13;93963.09;;;29.12;28.10
76086;BME280;64791;0.000;0.000;2023-05-07T09:46:43;93961.91;;;29.21;29.02
76086;BME280;64791;0.000;0.000;2023-05-07T09:49:21;93959.41;;;29.33;28.81
76086;BME280;64791;0.000;0.000;2023-05-07T09:51:49;93960.94;;;29.10;27.85
76086;BME280;64791;0.000;0.000;2023-05-07T09:54:16;93948.34;;;29.45;25.04
76086;BME280;64791;0.000;0.000;2023-05-07T09:56:45;93958.03;;;29.08;26.44
76086;BME280;64791;0.000;0.000;2023-05-07T09:59:15;93960.72;;;29.02;25.95
76086;BME280;64791;0.000;0.000;2023-05-07T10:01:43;93951.69;;;29.10;27.91
76086;BME280;64791;0.000;0.000;2023-05-07T10:04:10;93955.59;;;28.97;28.61
76086;BME280;64791;0.000;0.000;2023-05-07T10:06:36;93950.09;;;29.30;28.17
76086;BME280;64791;0.000;0.000;2023-05-07T10:09:04;93938.34;;;29.44;24.73
76086;BME280;64791;0.000;0.000;2023-05-07T10:11:33;93944.38;;;27.14;28.38
76086;BME280;64791;0.000;0.000;2023-05-07T10:14:00;93933.53;;;26.45;30.54
76086;BME280;64791;0.000;0.000;2023-05-07T10:16:30;93939.66;;;26.79;27.72
76086;BME280;64791;0.000;0.000;2023-05-07T10:18:57;93943.28;;;26.81;29.34
76086;BME280;64791;0.000;0.000;2023-05-07T10:21:24;93935.09;;;27.33;30.32
76086;BME280;64791;0.000;0.000;2023-05-07T10:24:03;93926.69;;;27.35;28.12
76086;BME280;64791;0.000;0.000;2023-05-07T10:26:35;93920.22;;;27.54;28.38
76086;BME280;64791;0.000;0.000;2023-05-07T10:29:06;93927.25;;;27.09;28.18
76086;BME280;64791;0.000;0.000;2023-05-07T10:31:41;93918.50;;;27.45;30.74
76086;BME280;64791;0.000;0.000;2023-05-07T10:34:13;93913.34;;;26.15;28.97
76086;BME280;64791;0.000;0.000;2023-05-07T10:36:41;93916.00;;;27.12;27.57
76086;BME280;64791;0.000;0.000;2023-05-07T10:39:09;93907.13;;;26.80;27.15
76086;BME280;64791;0.000;0.000;2023-05-07T10:41:36;93907.75;;;27.41;28.31
76086;BME280;64791;0.000;0.000;2023-05-07T10:44:02;93907.03;;;27.41;29.35
76086;BME280;64791;0.000;0.000;2023-05-07T10:46:31;93902.75;;;27.61;28.68
76086;BME280;64791;0.000;0.000;2023-05-07T10:49:09;93889.63;;;27.50;27.26
76086;BME280;64791;0.000;0.000;2023-05-07T10:51:47;93896.34;;;27.39;27.33
76086;BME280;64791;0.000;0.000;2023-05-07T10:54:33;93898.16;;;27.74;25.23
76086;BME280;64791;0.000;0.000;2023-05-07T10:59:51;93899.34;;;28.14;27.48
76086;BME280;64791;0.000;0.000;2023-05-07T11:02:41;93903.34;;;27.81;27.97
76086;BME280;64791;0.000;0.000;2023-05-07T11:05:19;93893.28;;;27.09;26.75
76086;BME280;64791;0.000;0.000;2023-05-07T11:07:58;93895.59;;;27.15;28.25
76086;BME280;64791;0.000;0.000;2023-05-07T11:16:17;93901.44;;;27.64;27.46
76086;BME280;64791;0.000;0.000;2023-05-07T11:18:51;93884.22;;;27.58;27.98
76086;BME280;64791;0.000;0.000;2023-05-07T11:21:39;93887.09;;;27.37;27.03
76086;BME280;64791;0.000;0.000;2023-05-07T11:24:20;93885.13;;;27.89;27.80
76086;BME280;64791;0.000;0.000;2023-05-07T11:26:52;93888.75;;;27.91;27.69
76086;BME280;64791;0.000;0.000;2023-05-07T11:29:20;93890.03;;;28.35;25.50
76086;BME280;64791;0.000;0.000;2023-05-07T11:31:49;93891.69;;;27.95;27.11
76086;BME280;64791;0.000;0.000;2023-05-07T11:34:19;93894.09;;;28.28;26.82
76086;BME280;64791;0.000;0.000;2023-05-07T11:36:45;93899.44;;;27.93;27.48
76086;BME280;64791;0.000;0.000;2023-05-07T11:39:32;93891.63;;;27.93;26.76
76086;BME280;64791;0.000;0.000;2023-05-07T11:42:01;93896.88;;;28.03;26.45
76086;BME280;64791;0.000;0.000;2023-05-07T11:44:43;93886.22;;;28.25;25.55
76086;BME280;64791;0.000;0.000;2023-05-07T11:47:09;93886.31;;;28.29;25.59
76086;BME280;64791;0.000;0.000;2023-05-07T11:49:35;93890.22;;;27.68;26.55
76086;BME280;64791;0.000;0.000;2023-05-07T11:52:01;93884.84;;;28.28;26.34
76086;BME280;64791;0.000;0.000;2023-05-07T11:54:34;93883.75;;;28.39;26.75
76086;BME280;64791;0.000;0.000;2023-05-07T11:57:00;93891.75;;;28.72;26.05
76086;BME280;64791;0.000;0.000;2023-05-07T11:59:26;93879.66;;;28.72;25.34
76086;BME280;64791;0.000;0.000;2023-05-07T12:01:52;93881.34;;;28.29;27.16
76086;BME280;64791;0.000;0.000;2023-05-07T12:04:20;93873.16;;;28.67;25.18
76086;BME280;64791;0.000;0.000;2023-05-07T12:06:46;93880.03;;;28.86;24.45
76086;BME280;64791;0.000;0.000;2023-05-07T12:09:12;93879.22;;;28.81;26.65
76086;BME280;64791;0.000;0.000;2023-05-07T12:11:38;93871.97;;;29.04;24.46
76086;BME280;64791;0.000;0.000;2023-05-07T12:14:05;93866.97;;;28.75;25.66
76086;BME280;64791;0.000;0.000;2023-05-07T12:16:30;93874.06;;;28.74;24.82
76086;BME280;64791;0.000;0.000;2023-05-07T12:18:56;93866.97;;;27.74;26.47
76086;BME280;64791;0.000;0.000;2023-05-07T12:21:24;93864.22;;;27.54;27.27
76086;BME280;64791;0.000;0.000;2023-05-07T12:23:50;93856.59;;;28.32;26.87
76086;BME280;64791;0.000;0.000;2023-05-07T12:26:16;93862.75;;;28.50;24.30
76086;BME280;64791;0.000;0.000;2023-05-07T12:28:42;93853.66;;;28.55;24.93
76086;BME280;64791;0.000;0.000;2023-05-07T12:31:07;93855.72;;;28.53;25.14
76086;BME280;64791;0.000;0.000;2023-05-07T12:33:34;93846.88;;;28.94;24.71
76086;BME280;64791;0.000;0.000;2023-05-07T12:36:02;93842.25;;;28.26;26.41
76086;BME280;64791;0.000;0.000;2023-05-07T12:38:32;93843.41;;;27.93;26.81
76086;BME280;64791;0.000;0.000;2023-05-07T12:41:00;93842.25;;;28.02;26.42
76086;BME280;64791;0.000;0.000;2023-05-07T12:43:26;93840.25;;;28.30;27.13
76086;BME280;64791;0.000;0.000;2023-05-07T12:45:54;93837.81;;;27.95;26.52
76086;BME280;64791;0.000;0.000;2023-05-07T12:48:20;93831.91;;;27.40;26.35
76086;BME280;64791;0.000;0.000;2023-05-07T12:50:50;93828.25;;;27.59;24.58
76086;BME280;64791;0.000;0.000;2023-05-07T12:53:15;93828.91;;;27.34;25.50
76086;BME280;64791;0.000;0.000;2023-05-07T12:55:42;93822.69;;;26.31;25.13
76086;BME280;64791;0.000;0.000;2023-05-07T12:58:08;93823.94;;;25.30;28.75
76086;BME280;64791;0.000;0.000;2023-05-07T13:00:34;93823.44;;;26.12;28.92
76086;BME280;64791;0.000;0.000;2023-05-07T13:03:00;93817.28;;;26.59;28.29
76086;BME280;64791;0.000;0.000;2023-05-07T13:05:25;93819.19;;;27.41;26.78
76086;BME280;64791;0.000;0.000;2023-05-07T13:07:54;93810.63;;;27.39;26.96
76086;BME280;64791;0.000;0.000;2023-05-07T13:10:21;93805.84;;;27.67;26.55
76086;BME280;64791;0.000;0.000;2023-05-07T13:12:47;93812.97;;;27.23;25.91
76086;BME280;64791;0.000;0.000;2023-05-07T13:15:12;93798.94;;;27.50;25.75
76086;BME280;64791;0.000;0.000;2023-05-07T13:17:38;93796.06;;;26.60;28.79
76086;BME280;64791;0.000;0.000;2023-05-07T13:20:04;93794.41;;;27.41;25.36
76086;BME280;64791;0.000;0.000;2023-05-07T13:22:31;93794.97;;;27.36;28.26
76086;BME280;64791;0.000;0.000;2023-05-07T13:24:57;93798.41;;;27.32;27.65